Time;durP1;ratioP1;P1;durP2;ratioP2;P2;SDS_P1;SDS_P2;PMS_P1;PMS_P2;Temp;Humidity;BMP_temperature;BMP_pressure;BME280_temperature;BME280_humidity;BME280_pressure;Samples;Min_cycle;Max_cycle;Signal;HPM_P1;HPM_P2
2023/07/09 00:00:15;;;;;;;7.40;5.33;;;;;;;;;;5079879;28;21080;-65
2023/07/09 00:02:43;;;;;;;10.30;5.97;;;;;;;;;;5077449;28;20709;-66
2023/07/09 00:05:16;;;;;;;6.67;5.40;;;;;;;;;;5080966;28;20697;-64
2023/07/09 00:07:45;;;;;;;11.97;5.43;;;;;;;;;;5079266;28;20672;-67
2023/07/09 00:10:17;;;;;;;6.60;5.63;;;;;;;;;;5079125;28;20842;-65
2023/07/09 00:12:46;;;;;;;11.60;6.67;;;;;;;;;;5060823;28;20678;-65
2023/07/09 00:15:17;;;;;;;5.70;5.20;;;;;;;;;;5066333;28;20717;-67
2023/07/09 00:17:46;;;;;;;10.57;6.17;;;;;;;;;;5080914;28;20645;-65
2023/07/09 00:20:15;;;;;;;8.50;5.80;;;;;;;;;;5080516;28;20688;-67
2023/07/09 00:22:51;;;;;;;9.33;5.93;;;;;;;;;;5079763;28;20764;-65
2023/07/09 00:25:20;;;;;;;8.03;5.90;;;;;;;;;;5080284;28;20692;-64
2023/07/09 00:27:49;;;;;;;8.10;6.13;;;;;;;;;;5079774;28;20702;-64
2023/07/09 00:30:21;;;;;;;6.10;5.50;;;;;;;;;;5079819;28;20830;-65
2023/07/09 00:32:51;;;;;;;7.03;5.97;;;;;;;;;;5080580;28;20669;-64
2023/07/09 00:35:20;;;;;;;6.70;4.87;;;;;;;;;;5080644;28;20708;-64
2023/07/09 00:37:48;;;;;;;7.17;6.47;;;;;;;;;;5080420;28;21069;-64
2023/07/09 00:40:18;;;;;;;7.33;5.67;;;;;;;;;;5080504;28;20681;-65
2023/07/09 00:42:47;;;;;;;12.40;6.23;;;;;;;;;;5066090;28;21305;-64
2023/07/09 00:45:21;;;;;;;10.90;5.60;;;;;;;;;;5072645;28;21267;-65
2023/07/09 00:47:51;;;;;;;7.60;5.60;;;;;;;;;;5080329;28;20685;-64
2023/07/09 00:50:28;;;;;;;6.37;5.50;;;;;;;;;;5079744;28;20740;-65
2023/07/09 00:52:58;;;;;;;5.57;4.83;;;;;;;;;;5070319;28;21047;-64
2023/07/09 00:55:28;;;;;;;9.10;5.90;;;;;;;;;;5079518;28;20702;-64
2023/07/09 00:57:59;;;;;;;7.60;6.03;;;;;;;;;;5079786;28;20713;-64
2023/07/09 01:00:30;;;;;;;8.97;5.77;;;;;;;;;;5079755;28;20693;-64
2023/07/09 01:02:59;;;;;;;6.50;5.03;;;;;;;;;;5077764;28;20689;-65
2023/07/09 01:05:27;;;;;;;9.00;5.50;;;;;;;;;;5063401;28;20691;-65
2023/07/09 01:07:58;;;;;;;8.50;4.70;;;;;;;;;;5079685;28;20708;-64
2023/07/09 01:10:26;;;;;;;11.23;4.93;;;;;;;;;;5078039;28;20823;-65
2023/07/09 01:12:54;;;;;;;6.87;4.87;;;;;;;;;;5064016;28;20722;-65
2023/07/09 01:15:23;;;;;;;11.13;5.73;;;;;;;;;;5059619;28;21090;-64
2023/07/09 01:17:53;;;;;;;12.10;5.53;;;;;;;;;;5058570;28;20701;-64
2023/07/09 01:20:22;;;;;;;5.37;4.90;;;;;;;;;;5058883;28;21172;-64
2023/07/09 01:22:54;;;;;;;7.43;4.77;;;;;;;;;;5059522;28;20698;-64
2023/07/09 01:25:23;;;;;;;4.83;4.37;;;;;;;;;;5077304;28;20614;-64
2023/07/09 01:27:51;;;;;;;7.23;5.30;;;;;;;;;;5077843;28;20694;-64
2023/07/09 01:30:22;;;;;;;8.03;5.30;;;;;;;;;;5078467;28;20741;-64
2023/07/09 01:32:51;;;;;;;6.13;5.30;;;;;;;;;;5078936;28;20578;-64
2023/07/09 01:35:21;;;;;;;10.63;5.80;;;;;;;;;;5079638;28;20701;-64
2023/07/09 01:37:49;;;;;;;5.73;5.10;;;;;;;;;;5078586;28;20682;-64
2023/07/09 01:40:20;;;;;;;5.57;5.07;;;;;;;;;;5078280;28;20721;-64
2023/07/09 01:42:49;;;;;;;6.07;5.47;;;;;;;;;;5080428;28;20646;-66
2023/07/09 01:45:20;;;;;;;7.20;5.20;;;;;;;;;;5079635;28;20759;-65
2023/07/09 01:47:48;;;;;;;14.00;6.37;;;;;;;;;;5078634;28;20654;-62
2023/07/09 01:50:18;;;;;;;5.83;5.30;;;;;;;;;;5061577;28;20718;-64
2023/07/09 01:52:49;;;;;;;9.40;6.57;;;;;;;;;;5059582;28;20698;-64
2023/07/09 01:55:18;;;;;;;11.63;7.20;;;;;;;;;;5058656;28;20645;-63
2023/07/09 01:57:48;;;;;;;7.80;6.17;;;;;;;;;;5060736;28;20714;-63
2023/07/09 02:00:18;;;;;;;8.83;6.17;;;;;;;;;;5074036;28;20714;-63
2023/07/09 02:02:50;;;;;;;6.13;5.53;;;;;;;;;;5077679;28;20673;-65
2023/07/09 02:05:19;;;;;;;6.60;5.90;;;;;;;;;;5071188;28;20767;-65
2023/07/09 02:07:48;;;;;;;9.27;7.00;;;;;;;;;;5078855;28;21115;-62
2023/07/09 02:10:16;;;;;;;10.30;5.70;;;;;;;;;;5077998;28;20702;-63
2023/07/09 02:12:45;;;;;;;8.57;6.03;;;;;;;;;;5061218;28;20812;-66
2023/07/09 02:15:15;;;;;;;10.40;6.30;;;;;;;;;;5056801;28;20701;-63
2023/07/09 02:17:43;;;;;;;7.70;6.13;;;;;;;;;;5069879;28;20765;-63
2023/07/09 02:20:12;;;;;;;7.63;6.63;;;;;;;;;;5073771;28;20706;-64
2023/07/09 02:22:41;;;;;;;8.30;5.80;;;;;;;;;;5069818;28;20614;-65
2023/07/09 02:25:10;;;;;;;7.27;5.80;;;;;;;;;;5078545;28;20678;-63
2023/07/09 02:27:39;;;;;;;6.80;5.90;;;;;;;;;;5077699;28;20674;-63
2023/07/09 02:30:08;;;;;;;6.90;6.20;;;;;;;;;;5067440;28;20706;-64
2023/07/09 02:32:37;;;;;;;8.67;6.07;;;;;;;;;;5039816;28;20698;-64
2023/07/09 02:35:06;;;;;;;7.00;5.67;;;;;;;;;;5058620;28;20683;-64
2023/07/09 02:37:34;;;;;;;9.80;5.43;;;;;;;;;;5057088;28;21121;-64
2023/07/09 02:40:03;;;;;;;7.60;6.43;;;;;;;;;;5058941;28;20725;-64
2023/07/09 02:42:32;;;;;;;8.37;6.33;;;;;;;;;;5056539;28;20760;-64
2023/07/09 02:45:00;;;;;;;6.93;5.80;;;;;;;;;;5056781;28;21016;-64
2023/07/09 02:47:31;;;;;;;8.23;7.37;;;;;;;;;;5057375;28;21019;-64
2023/07/09 02:50:03;;;;;;;13.63;6.10;;;;;;;;;;5057032;28;20694;-64
2023/07/09 02:52:32;;;;;;;6.03;5.53;;;;;;;;;;5056113;28;20786;-64
2023/07/09 02:55:00;;;;;;;9.13;6.37;;;;;;;;;;5069317;28;20705;-64
2023/07/09 02:57:28;;;;;;;7.67;6.13;;;;;;;;;;5076745;28;20728;-64
2023/07/09 02:59:56;;;;;;;7.10;6.33;;;;;;;;;;5077533;28;20678;-64
2023/07/09 03:02:26;;;;;;;5.60;5.10;;;;;;;;;;5071474;28;20733;-64
2023/07/09 03:04:54;;;;;;;13.67;5.37;;;;;;;;;;5074971;28;20705;-63
2023/07/09 03:07:24;;;;;;;6.80;6.10;;;;;;;;;;5076555;28;20698;-64
2023/07/09 03:09:53;;;;;;;7.30;5.77;;;;;;;;;;5077655;28;21235;-64
2023/07/09 03:12:21;;;;;;;5.93;5.13;;;;;;;;;;5066467;28;20755;-64
2023/07/09 03:14:50;;;;;;;7.70;5.43;;;;;;;;;;5076123;28;20701;-64
2023/07/09 03:17:18;;;;;;;7.73;5.60;;;;;;;;;;5076799;28;20767;-63
2023/07/09 03:19:46;;;;;;;6.60;5.27;;;;;;;;;;5080522;28;20690;-63
2023/07/09 03:22:14;;;;;;;6.80;6.10;;;;;;;;;;5081374;28;20721;-64
2023/07/09 03:24:44;;;;;;;6.90;6.40;;;;;;;;;;5081034;28;20697;-64
2023/07/09 03:27:12;;;;;;;8.70;6.40;;;;;;;;;;5080162;28;20703;-64
2023/07/09 03:29:40;;;;;;;7.07;5.80;;;;;;;;;;5081095;28;20700;-64
2023/07/09 03:32:09;;;;;;;7.13;6.43;;;;;;;;;;5080168;28;20761;-64
2023/07/09 03:34:37;;;;;;;7.10;6.40;;;;;;;;;;5080741;28;20697;-63
2023/07/09 03:37:05;;;;;;;8.70;6.27;;;;;;;;;;5079734;28;21235;-64
2023/07/09 03:39:33;;;;;;;7.37;5.63;;;;;;;;;;5079922;28;20965;-64
2023/07/09 03:42:03;;;;;;;6.70;5.73;;;;;;;;;;5080500;28;20705;-64
2023/07/09 03:44:31;;;;;;;11.37;6.00;;;;;;;;;;5059320;28;20627;-64
2023/07/09 03:46:59;;;;;;;8.80;6.67;;;;;;;;;;5076947;28;21217;-64
2023/07/09 03:49:28;;;;;;;9.07;6.17;;;;;;;;;;5063462;28;20697;-64
2023/07/09 03:51:56;;;;;;;7.37;5.17;;;;;;;;;;5079178;28;20657;-64
2023/07/09 03:54:24;;;;;;;6.60;5.47;;;;;;;;;;5080160;28;20709;-64
2023/07/09 03:56:52;;;;;;;9.93;5.83;;;;;;;;;;5079602;28;20697;-64
2023/07/09 03:59:22;;;;;;;12.03;5.57;;;;;;;;;;5064704;28;20754;-63
2023/07/09 04:01:50;;;;;;;8.40;6.47;;;;;;;;;;5078739;28;20678;-64
2023/07/09 04:04:20;;;;;;;8.63;5.47;;;;;;;;;;5072410;28;20656;-64
2023/07/09 04:06:48;;;;;;;9.17;5.80;;;;;;;;;;5059942;28;20711;-64
2023/07/09 04:09:16;;;;;;;10.53;5.60;;;;;;;;;;5060186;28;20674;-64
2023/07/09 04:11:44;;;;;;;6.93;5.87;;;;;;;;;;5070263;28;20766;-65
2023/07/09 04:14:12;;;;;;;6.87;5.30;;;;;;;;;;5060489;28;20756;-63
2023/07/09 04:16:42;;;;;;;6.50;5.80;;;;;;;;;;5060803;28;21061;-64
2023/07/09 04:19:10;;;;;;;7.60;5.77;;;;;;;;;;5062196;28;20990;-63
2023/07/09 04:21:39;;;;;;;11.67;6.30;;;;;;;;;;5079284;28;20693;-64
2023/07/09 04:24:07;;;;;;;6.13;5.53;;;;;;;;;;5080056;28;20728;-64
2023/07/09 04:26:39;;;;;;;5.73;5.23;;;;;;;;;;5078996;28;20624;-64
2023/07/09 04:29:08;;;;;;;5.93;5.43;;;;;;;;;;5080094;28;20712;-64
2023/07/09 04:31:36;;;;;;;7.10;5.57;;;;;;;;;;5080200;28;20748;-64
2023/07/09 04:34:06;;;;;;;6.17;5.57;;;;;;;;;;5080493;28;20705;-65
2023/07/09 04:36:35;;;;;;;6.83;5.60;;;;;;;;;;5080660;28;21251;-64
2023/07/09 04:39:03;;;;;;;6.90;5.50;;;;;;;;;;5080208;28;20970;-64
2023/07/09 04:41:32;;;;;;;5.87;5.17;;;;;;;;;;5081042;28;20678;-63
2023/07/09 04:44:00;;;;;;;8.10;5.77;;;;;;;;;;5081101;28;20712;-64
2023/07/09 04:46:28;;;;;;;9.07;5.57;;;;;;;;;;5081073;28;20706;-64
2023/07/09 04:48:56;;;;;;;7.80;5.73;;;;;;;;;;5080739;28;20686;-63
2023/07/09 04:51:26;;;;;;;5.80;5.20;;;;;;;;;;5080726;28;20701;-65
2023/07/09 04:53:54;;;;;;;5.97;5.47;;;;;;;;;;5072577;28;20714;-66
2023/07/09 04:56:22;;;;;;;5.53;5.13;;;;;;;;;;5059260;28;21098;-63
2023/07/09 04:58:51;;;;;;;9.50;5.10;;;;;;;;;;5058730;28;20706;-63
2023/07/09 05:01:19;;;;;;;6.47;5.57;;;;;;;;;;5058049;28;20702;-64
2023/07/09 05:03:47;;;;;;;6.47;5.03;;;;;;;;;;5058260;28;20729;-64
2023/07/09 05:06:15;;;;;;;8.20;6.47;;;;;;;;;;5058988;28;20706;-64
2023/07/09 05:08:45;;;;;;;5.80;5.30;;;;;;;;;;5056362;28;21021;-66
2023/07/09 05:11:13;;;;;;;7.83;6.00;;;;;;;;;;5059171;28;20726;-64
2023/07/09 05:13:42;;;;;;;6.37;5.57;;;;;;;;;;5058278;28;21158;-64
2023/07/09 05:16:10;;;;;;;6.90;5.50;;;;;;;;;;5059278;28;20682;-63
2023/07/09 05:18:38;;;;;;;5.40;5.00;;;;;;;;;;5072979;28;20725;-63
2023/07/09 05:21:06;;;;;;;6.63;5.17;;;;;;;;;;5077467;28;20713;-63
2023/07/09 05:23:35;;;;;;;5.77;5.13;;;;;;;;;;5076697;28;20791;-63
2023/07/09 05:26:04;;;;;;;9.50;6.10;;;;;;;;;;5080760;28;20705;-63
2023/07/09 05:28:33;;;;;;;5.47;4.97;;;;;;;;;;5079283;28;20629;-64
2023/07/09 05:31:01;;;;;;;8.13;5.50;;;;;;;;;;5079837;28;20682;-63
2023/07/09 05:33:30;;;;;;;10.57;5.70;;;;;;;;;;5078716;28;20714;-63
2023/07/09 05:35:58;;;;;;;7.47;5.97;;;;;;;;;;5079900;28;20706;-63
2023/07/09 05:38:26;;;;;;;5.90;5.30;;;;;;;;;;5079596;28;20713;-63
2023/07/09 05:41:01;;;;;;;5.47;4.97;;;;;;;;;;5078709;28;20713;-63
2023/07/09 05:43:30;;;;;;;7.17;6.00;;;;;;;;;;5078195;28;20665;-64
2023/07/09 05:45:59;;;;;;;7.90;6.13;;;;;;;;;;5078401;28;21164;-63
2023/07/09 05:48:27;;;;;;;7.90;6.07;;;;;;;;;;5077301;28;20717;-63
2023/07/09 05:50:55;;;;;;;8.77;6.10;;;;;;;;;;5077979;28;20710;-63
2023/07/09 05:53:24;;;;;;;6.53;5.90;;;;;;;;;;5077096;28;20757;-63
2023/07/09 05:55:54;;;;;;;6.50;5.67;;;;;;;;;;5078118;28;20694;-63
2023/07/09 05:58:22;;;;;;;12.40;6.50;;;;;;;;;;5077904;28;20740;-65
2023/07/09 06:00:56;;;;;;;8.83;5.27;;;;;;;;;;5077798;28;20602;-66
2023/07/09 06:03:24;;;;;;;7.23;6.27;;;;;;;;;;5078088;28;20712;-66
2023/07/09 06:05:53;;;;;;;6.20;5.60;;;;;;;;;;5075117;28;20728;-63
2023/07/09 06:08:21;;;;;;;9.93;6.80;;;;;;;;;;5079010;28;20814;-62
2023/07/09 06:10:56;;;;;;;12.30;6.00;;;;;;;;;;5078039;28;20740;-64
2023/07/09 06:13:24;;;;;;;8.70;6.03;;;;;;;;;;5063280;28;20721;-64
2023/07/09 06:15:53;;;;;;;11.47;6.80;;;;;;;;;;5061949;28;21051;-63
2023/07/09 06:18:24;;;;;;;9.83;6.50;;;;;;;;;;5069617;28;20701;-63
2023/07/09 06:20:53;;;;;;;10.17;5.73;;;;;;;;;;5076048;28;20746;-63
2023/07/09 06:23:21;;;;;;;6.90;6.03;;;;;;;;;;5077511;28;20626;-63
2023/07/09 06:25:50;;;;;;;6.50;5.77;;;;;;;;;;5064224;28;20682;-64
2023/07/09 06:28:19;;;;;;;7.57;6.50;;;;;;;;;;5070265;28;21046;-63
2023/07/09 06:30:48;;;;;;;9.07;5.80;;;;;;;;;;5075835;28;20776;-64
2023/07/09 06:33:19;;;;;;;6.27;5.67;;;;;;;;;;5076380;28;21191;-64
2023/07/09 06:35:49;;;;;;;10.23;6.00;;;;;;;;;;5064336;28;21028;-64
2023/07/09 06:38:18;;;;;;;6.93;6.23;;;;;;;;;;5076187;28;20690;-63
2023/07/09 06:40:46;;;;;;;10.60;6.40;;;;;;;;;;5076898;28;20709;-63
2023/07/09 06:43:15;;;;;;;16.63;6.80;;;;;;;;;;5076523;28;20686;-64
2023/07/09 06:45:53;;;;;;;11.00;6.00;;;;;;;;;;5076118;28;20677;-64
2023/07/09 06:48:21;;;;;;;8.00;6.50;;;;;;;;;;5077143;28;20696;-63
2023/07/09 06:50:51;;;;;;;7.90;5.80;;;;;;;;;;5078462;28;20705;-64
2023/07/09 06:53:20;;;;;;;6.57;5.90;;;;;;;;;;5077881;28;20754;-63
2023/07/09 06:55:48;;;;;;;12.63;7.17;;;;;;;;;;5080190;28;20763;-64
2023/07/09 06:58:17;;;;;;;6.33;5.70;;;;;;;;;;5081222;28;20749;-63
2023/07/09 07:00:45;;;;;;;7.03;6.20;;;;;;;;;;5076930;28;21313;-64
2023/07/09 07:03:13;;;;;;;7.27;5.87;;;;;;;;;;5081078;28;20705;-64
2023/07/09 07:05:44;;;;;;;9.30;6.77;;;;;;;;;;5082232;28;20682;-63
2023/07/09 07:08:15;;;;;;;6.63;6.13;;;;;;;;;;5070237;28;20719;-63
2023/07/09 07:10:43;;;;;;;7.60;6.93;;;;;;;;;;5082939;28;20736;-64
2023/07/09 07:13:12;;;;;;;6.47;5.60;;;;;;;;;;5080752;28;20660;-64
2023/07/09 07:15:40;;;;;;;6.43;5.93;;;;;;;;;;5081645;28;20693;-64
2023/07/09 07:18:09;;;;;;;12.03;6.20;;;;;;;;;;5081928;28;20693;-64
2023/07/09 07:20:37;;;;;;;12.13;7.40;;;;;;;;;;5082172;28;20694;-63
2023/07/09 07:23:05;;;;;;;8.10;6.77;;;;;;;;;;5080745;28;20693;-63
2023/07/09 07:25:35;;;;;;;9.83;6.67;;;;;;;;;;5081779;28;20690;-64
2023/07/09 07:28:03;;;;;;;7.20;6.50;;;;;;;;;;5080691;28;20695;-64
2023/07/09 07:30:31;;;;;;;9.20;6.33;;;;;;;;;;5080780;28;20681;-64
2023/07/09 07:33:00;;;;;;;10.70;6.73;;;;;;;;;;5082006;28;20735;-63
2023/07/09 07:35:28;;;;;;;8.60;6.80;;;;;;;;;;5080678;28;20725;-63
2023/07/09 07:37:56;;;;;;;12.47;7.73;;;;;;;;;;5069682;28;20722;-64
2023/07/09 07:40:25;;;;;;;8.27;6.30;;;;;;;;;;5080008;28;20686;-64
2023/07/09 07:42:54;;;;;;;7.43;6.67;;;;;;;;;;5080968;28;20697;-64
2023/07/09 07:45:22;;;;;;;8.97;8.07;;;;;;;;;;5080782;28;20713;-63
2023/07/09 07:47:51;;;;;;;7.20;6.60;;;;;;;;;;5074795;28;21057;-64
2023/07/09 07:50:20;;;;;;;11.13;7.20;;;;;;;;;;5065398;28;21143;-63
2023/07/09 07:52:49;;;;;;;9.60;7.00;;;;;;;;;;5080424;28;20685;-64
2023/07/09 07:55:18;;;;;;;7.27;6.67;;;;;;;;;;5079262;28;20673;-64
2023/07/09 07:57:46;;;;;;;7.50;6.90;;;;;;;;;;5077739;28;20729;-63
2023/07/09 08:00:17;;;;;;;7.10;6.50;;;;;;;;;;5079408;28;20675;-64
2023/07/09 08:02:45;;;;;;;7.00;6.30;;;;;;;;;;5078185;28;20611;-64
2023/07/09 08:05:13;;;;;;;8.90;7.30;;;;;;;;;;5078727;28;20709;-64
2023/07/09 08:07:41;;;;;;;7.23;6.60;;;;;;;;;;5077224;28;20714;-65
2023/07/09 08:10:10;;;;;;;9.33;7.00;;;;;;;;;;5079509;28;21278;-63
2023/07/09 08:12:38;;;;;;;11.33;6.47;;;;;;;;;;5081192;28;20706;-64
2023/07/09 08:15:06;;;;;;;7.73;7.03;;;;;;;;;;5064055;28;20714;-64
2023/07/09 08:17:36;;;;;;;10.20;8.43;;;;;;;;;;5078790;28;20792;-63
2023/07/09 08:20:04;;;;;;;8.17;6.47;;;;;;;;;;5080036;28;20697;-64
2023/07/09 08:22:32;;;;;;;7.43;6.93;;;;;;;;;;5079892;28;20717;-63
2023/07/09 08:25:01;;;;;;;7.17;6.47;;;;;;;;;;5078233;28;20720;-64
2023/07/09 08:27:29;;;;;;;7.80;7.10;;;;;;;;;;5078951;28;21251;-64
2023/07/09 08:29:57;;;;;;;6.93;6.23;;;;;;;;;;5079208;28;20704;-64
2023/07/09 08:32:25;;;;;;;8.90;6.33;;;;;;;;;;5065955;28;20726;-64
2023/07/09 08:34:55;;;;;;;7.80;7.10;;;;;;;;;;5068578;28;20721;-64
2023/07/09 08:37:23;;;;;;;8.90;7.07;;;;;;;;;;5079052;28;21264;-64
2023/07/09 08:39:51;;;;;;;7.40;6.70;;;;;;;;;;5078694;28;20630;-64
2023/07/09 08:42:27;;;;;;;6.93;6.37;;;;;;;;;;5078776;28;20700;-63
2023/07/09 08:45:12;;;;;;;10.30;6.90;;;;;;;;;;5079519;28;20673;-63
2023/07/09 08:47:45;;;;;;;6.70;6.00;;;;;;;;;;5080083;28;20669;-63
2023/07/09 08:50:16;;;;;;;7.40;6.70;;;;;;;;;;5070660;28;20725;-64
2023/07/09 08:52:45;;;;;;;7.70;6.90;;;;;;;;;;5059726;28;20659;-66
2023/07/09 08:55:15;;;;;;;7.17;6.50;;;;;;;;;;5059435;28;20716;-63
2023/07/09 08:57:45;;;;;;;7.60;6.80;;;;;;;;;;5058824;28;20670;-66
2023/07/09 09:00:16;;;;;;;7.83;7.10;;;;;;;;;;5059020;28;20679;-64
2023/07/09 09:02:48;;;;;;;7.37;6.67;;;;;;;;;;5057724;28;20678;-65
2023/07/09 09:05:19;;;;;;;8.13;6.63;;;;;;;;;;5059091;28;20572;-64
2023/07/09 09:07:49;;;;;;;6.37;5.97;;;;;;;;;;5066669;28;20621;-64
2023/07/09 09:10:19;;;;;;;8.33;7.43;;;;;;;;;;5075662;28;20726;-64
2023/07/09 09:12:56;;;;;;;8.77;7.30;;;;;;;;;;5077795;28;20683;-64
2023/07/09 09:15:26;;;;;;;7.73;7.03;;;;;;;;;;5071476;28;20725;-64
2023/07/09 09:17:56;;;;;;;6.97;6.47;;;;;;;;;;5057665;28;20705;-64
2023/07/09 09:20:28;;;;;;;7.20;6.60;;;;;;;;;;5057559;28;20589;-65
2023/07/09 09:22:58;;;;;;;8.60;7.43;;;;;;;;;;5058008;28;20687;-64
2023/07/09 09:25:28;;;;;;;8.77;7.40;;;;;;;;;;5058921;28;20674;-64
2023/07/09 09:27:56;;;;;;;9.23;8.37;;;;;;;;;;5059722;28;20698;-64
2023/07/09 09:30:25;;;;;;;6.60;6.10;;;;;;;;;;5058964;28;20698;-65
2023/07/09 09:32:55;;;;;;;6.83;6.23;;;;;;;;;;5058667;28;20678;-64
2023/07/09 09:35:29;;;;;;;7.93;6.53;;;;;;;;;;5057777;28;20719;-63
2023/07/09 09:37:58;;;;;;;6.77;6.13;;;;;;;;;;5060997;28;20722;-64
2023/07/09 09:40:27;;;;;;;7.03;6.50;;;;;;;;;;5073215;28;20618;-64
2023/07/09 09:42:56;;;;;;;7.57;6.77;;;;;;;;;;5075225;28;20616;-64
2023/07/09 09:45:28;;;;;;;6.57;6.17;;;;;;;;;;5076692;28;20618;-64
2023/07/09 09:47:59;;;;;;;7.00;6.50;;;;;;;;;;5074944;28;21199;-64
2023/07/09 09:50:32;;;;;;;10.37;6.73;;;;;;;;;;5075069;28;20586;-64
2023/07/09 09:53:01;;;;;;;7.07;6.33;;;;;;;;;;5075680;28;20578;-64
2023/07/09 09:55:32;;;;;;;7.60;6.90;;;;;;;;;;5073572;28;20658;-64
2023/07/09 09:58:02;;;;;;;7.80;7.20;;;;;;;;;;5074329;28;21230;-64
2023/07/09 10:00:33;;;;;;;10.70;6.43;;;;;;;;;;5072683;28;20622;-64
2023/07/09 10:03:01;;;;;;;7.40;6.83;;;;;;;;;;5069970;28;20705;-64
2023/07/09 10:05:34;;;;;;;7.93;6.97;;;;;;;;;;5075545;28;20693;-64
2023/07/09 10:08:09;;;;;;;8.90;6.17;;;;;;;;;;5068202;28;20594;-64
2023/07/09 10:10:37;;;;;;;5.60;5.20;;;;;;;;;;5067073;28;20727;-64
2023/07/09 10:13:08;;;;;;;6.43;5.93;;;;;;;;;;5072325;28;20632;-64
2023/07/09 10:15:42;;;;;;;7.37;6.77;;;;;;;;;;5074846;28;20648;-64
2023/07/09 10:18:15;;;;;;;8.40;6.83;;;;;;;;;;5071491;28;20605;-64
2023/07/09 10:20:47;;;;;;;7.67;7.07;;;;;;;;;;5069983;28;20614;-66
2023/07/09 10:23:20;;;;;;;7.73;7.03;;;;;;;;;;5073507;28;20848;-64
2023/07/09 10:25:51;;;;;;;7.47;6.83;;;;;;;;;;5070737;28;20594;-65
2023/07/09 10:28:28;;;;;;;6.87;6.27;;;;;;;;;;5072757;28;20593;-64
2023/07/09 10:31:06;;;;;;;10.40;6.63;;;;;;;;;;5074322;28;20694;-64
2023/07/09 10:33:39;;;;;;;6.37;5.87;;;;;;;;;;5071782;28;20606;-64
2023/07/09 10:36:14;;;;;;;8.40;5.97;;;;;;;;;;5067730;28;21067;-64
2023/07/09 10:38:47;;;;;;;6.93;6.37;;;;;;;;;;5068624;28;21151;-64
2023/07/09 10:41:16;;;;;;;7.50;6.80;;;;;;;;;;5070445;28;21714;-64
2023/07/09 10:43:47;;;;;;;7.97;6.20;;;;;;;;;;5068887;28;20632;-64
2023/07/09 10:46:16;;;;;;;7.73;6.90;;;;;;;;;;5063340;28;20602;-64
2023/07/09 10:48:46;;;;;;;7.73;7.03;;;;;;;;;;5071025;28;21176;-64
2023/07/09 10:51:18;;;;;;;6.77;6.27;;;;;;;;;;5072025;28;20622;-64
2023/07/09 10:53:50;;;;;;;6.77;6.07;;;;;;;;;;5071793;28;20574;-64
2023/07/09 10:56:20;;;;;;;6.13;5.53;;;;;;;;;;5071330;28;20626;-65
2023/07/09 10:58:51;;;;;;;6.43;5.90;;;;;;;;;;5063412;28;20653;-64
2023/07/09 11:01:23;;;;;;;6.83;5.97;;;;;;;;;;5049141;28;20595;-64
2023/07/09 11:03:52;;;;;;;9.50;5.90;;;;;;;;;;5050928;28;20621;-63
2023/07/09 11:06:23;;;;;;;6.33;5.83;;;;;;;;;;5050737;28;21176;-64
2023/07/09 11:08:53;;;;;;;7.10;6.60;;;;;;;;;;5052045;28;20606;-65
2023/07/09 11:11:26;;;;;;;7.47;6.17;;;;;;;;;;5050551;28;20659;-64
2023/07/09 11:13:57;;;;;;;6.87;6.27;;;;;;;;;;5057443;28;20643;-63
2023/07/09 11:16:28;;;;;;;7.33;6.60;;;;;;;;;;5071030;28;20654;-64
2023/07/09 11:18:59;;;;;;;7.40;6.73;;;;;;;;;;5062986;28;20633;-64
2023/07/09 11:21:29;;;;;;;6.17;5.70;;;;;;;;;;5069811;28;20621;-63
2023/07/09 11:23:59;;;;;;;7.07;6.47;;;;;;;;;;5069455;28;20618;-65
2023/07/09 11:26:28;;;;;;;6.90;6.30;;;;;;;;;;5066379;28;20618;-64
2023/07/09 11:28:57;;;;;;;7.17;6.47;;;;;;;;;;5054708;28;21157;-63
2023/07/09 11:31:32;;;;;;;7.60;7.10;;;;;;;;;;5065660;28;21079;-64
2023/07/09 11:34:02;;;;;;;6.30;5.90;;;;;;;;;;5061677;28;20602;-64
2023/07/09 11:36:32;;;;;;;6.63;6.03;;;;;;;;;;5060185;28;21013;-64
2023/07/09 11:39:00;;;;;;;6.93;6.43;;;;;;;;;;5069554;28;20636;-64
2023/07/09 11:41:35;;;;;;;6.93;6.43;;;;;;;;;;5069646;28;20623;-64
2023/07/09 11:44:13;;;;;;;6.50;6.10;;;;;;;;;;5065807;28;21174;-64
2023/07/09 11:46:45;;;;;;;6.57;6.07;;;;;;;;;;5075580;28;20604;-64
2023/07/09 11:49:13;;;;;;;7.30;6.90;;;;;;;;;;5072237;28;20604;-64
2023/07/09 11:51:46;;;;;;;11.00;7.40;;;;;;;;;;5069953;28;21058;-64
2023/07/09 11:54:15;;;;;;;7.10;6.43;;;;;;;;;;5075977;28;20639;-64
2023/07/09 11:56:43;;;;;;;6.87;6.17;;;;;;;;;;5069812;28;21230;-64
2023/07/09 11:59:12;;;;;;;7.10;6.70;;;;;;;;;;5067561;28;20655;-64
2023/07/09 12:01:44;;;;;;;5.63;5.27;;;;;;;;;;5066327;28;20614;-65
2023/07/09 12:04:14;;;;;;;11.20;6.60;;;;;;;;;;5056012;28;21161;-64
2023/07/09 12:06:44;;;;;;;7.07;6.50;;;;;;;;;;5068630;28;20614;-64
2023/07/09 12:09:15;;;;;;;9.67;7.00;;;;;;;;;;5060518;28;20626;-65
2023/07/09 12:11:45;;;;;;;6.70;6.17;;;;;;;;;;5074349;28;20649;-64
2023/07/09 12:14:14;;;;;;;6.30;5.80;;;;;;;;;;5066026;28;20626;-64
2023/07/09 12:16:45;;;;;;;6.60;6.10;;;;;;;;;;5075116;28;20666;-64
2023/07/09 12:19:13;;;;;;;6.53;6.13;;;;;;;;;;5075273;28;20606;-64
2023/07/09 12:21:44;;;;;;;7.33;6.77;;;;;;;;;;5074701;28;20629;-64
2023/07/09 12:24:20;;;;;;;7.87;5.70;;;;;;;;;;5075217;28;21161;-64
2023/07/09 12:26:53;;;;;;;5.93;5.63;;;;;;;;;;5073918;28;20664;-64
2023/07/09 12:29:21;;;;;;;6.43;5.93;;;;;;;;;;5061769;28;20641;-64
2023/07/09 12:31:48;;;;;;;8.83;6.40;;;;;;;;;;5063369;28;20638;-64
2023/07/09 12:34:18;;;;;;;12.13;5.83;;;;;;;;;;5071783;28;20981;-64
2023/07/09 12:36:48;;;;;;;10.57;5.83;;;;;;;;;;5074149;28;21038;-64
2023/07/09 12:39:18;;;;;;;6.93;6.37;;;;;;;;;;5061845;28;20715;-65
2023/07/09 12:41:47;;;;;;;6.93;6.33;;;;;;;;;;5067991;28;20610;-64
2023/07/09 12:44:18;;;;;;;6.10;5.60;;;;;;;;;;5075640;28;20619;-65
2023/07/09 12:46:46;;;;;;;5.93;5.63;;;;;;;;;;5075340;28;20614;-64
2023/07/09 12:49:24;;;;;;;9.10;6.90;;;;;;;;;;5074872;28;20618;-67
2023/07/09 12:51:52;;;;;;;6.87;6.33;;;;;;;;;;5073858;28;20594;-64
2023/07/09 12:54:22;;;;;;;6.00;5.50;;;;;;;;;;5073318;28;20622;-64
2023/07/09 12:56:52;;;;;;;6.13;5.50;;;;;;;;;;5070855;28;20659;-64
2023/07/09 12:59:22;;;;;;;6.60;6.03;;;;;;;;;;5067103;28;20661;-64
2023/07/09 13:01:50;;;;;;;7.23;6.53;;;;;;;;;;5066527;28;21235;-64
2023/07/09 13:04:19;;;;;;;6.80;6.10;;;;;;;;;;5051473;28;20692;-64
2023/07/09 13:06:47;;;;;;;6.47;6.07;;;;;;;;;;5064548;28;20644;-64
2023/07/09 13:09:21;;;;;;;6.60;6.00;;;;;;;;;;5073712;28;20622;-64
2023/07/09 13:11:50;;;;;;;7.23;5.87;;;;;;;;;;5062397;28;20677;-64
2023/07/09 13:14:20;;;;;;;8.20;6.47;;;;;;;;;;5071708;28;20679;-64
2023/07/09 13:16:49;;;;;;;6.23;5.83;;;;;;;;;;5074271;28;20669;-65
2023/07/09 13:19:18;;;;;;;6.77;6.20;;;;;;;;;;5052014;28;20625;-65
2023/07/09 13:21:46;;;;;;;6.80;6.23;;;;;;;;;;5054039;28;20619;-64
2023/07/09 13:24:15;;;;;;;7.03;6.40;;;;;;;;;;5071924;28;20629;-66
2023/07/09 13:26:44;;;;;;;6.23;5.87;;;;;;;;;;5068717;28;21329;-67
2023/07/09 13:29:15;;;;;;;6.67;6.00;;;;;;;;;;5072456;28;20978;-64
2023/07/09 13:31:44;;;;;;;6.13;5.83;;;;;;;;;;5073990;28;21109;-66
2023/07/09 13:34:18;;;;;;;7.50;6.80;;;;;;;;;;5058334;28;20619;-64
2023/07/09 13:36:46;;;;;;;6.63;6.13;;;;;;;;;;5074600;28;20672;-64
2023/07/09 13:39:15;;;;;;;6.90;6.40;;;;;;;;;;5072512;28;20628;-64
2023/07/09 13:41:44;;;;;;;6.23;5.80;;;;;;;;;;5074373;28;20610;-64
2023/07/09 13:44:15;;;;;;;7.80;5.90;;;;;;;;;;5072885;28;20621;-64
2023/07/09 13:46:44;;;;;;;8.70;6.10;;;;;;;;;;5073741;28;20602;-67
2023/07/09 13:49:13;;;;;;;6.20;5.70;;;;;;;;;;5072925;28;20742;-64
2023/07/09 13:51:42;;;;;;;7.83;6.50;;;;;;;;;;5073145;28;20610;-64
2023/07/09 13:54:16;;;;;;;6.13;5.77;;;;;;;;;;5072879;28;20614;-64
2023/07/09 13:56:44;;;;;;;7.37;5.40;;;;;;;;;;5066227;28;20679;-66
2023/07/09 13:59:18;;;;;;;6.77;6.17;;;;;;;;;;5069159;28;20652;-64
2023/07/09 14:01:46;;;;;;;6.90;6.40;;;;;;;;;;5066493;28;20617;-64
2023/07/09 14:04:16;;;;;;;6.47;5.87;;;;;;;;;;5071250;28;20727;-65
2023/07/09 14:06:46;;;;;;;6.77;6.17;;;;;;;;;;5071775;28;20620;-65
2023/07/09 14:09:14;;;;;;;6.87;6.10;;;;;;;;;;5072396;28;20624;-67
2023/07/09 14:11:43;;;;;;;6.37;6.00;;;;;;;;;;5064640;28;20681;-64
2023/07/09 14:14:17;;;;;;;8.33;5.80;;;;;;;;;;5069080;28;20630;-64
2023/07/09 14:16:48;;;;;;;7.03;6.33;;;;;;;;;;5071949;28;20642;-65
2023/07/09 14:19:17;;;;;;;7.03;6.47;;;;;;;;;;5071297;28;20610;-64
2023/07/09 14:21:45;;;;;;;10.00;6.20;;;;;;;;;;5068749;28;20634;-65
2023/07/09 14:24:21;;;;;;;6.30;5.80;;;;;;;;;;5071841;28;20618;-66
2023/07/09 14:26:50;;;;;;;6.87;6.27;;;;;;;;;;5071312;28;20580;-63
2023/07/09 14:29:19;;;;;;;6.60;6.00;;;;;;;;;;5058169;28;20639;-64
2023/07/09 14:31:49;;;;;;;6.33;5.93;;;;;;;;;;5052119;28;20627;-65
2023/07/09 14:34:21;;;;;;;6.60;6.10;;;;;;;;;;5051735;28;20604;-64
2023/07/09 14:36:49;;;;;;;6.13;5.63;;;;;;;;;;5051340;28;20645;-64
2023/07/09 14:39:18;;;;;;;6.30;5.90;;;;;;;;;;5052330;28;20619;-63
2023/07/09 14:41:47;;;;;;;6.20;5.70;;;;;;;;;;5051828;28;20664;-65
2023/07/09 14:44:25;;;;;;;6.20;5.70;;;;;;;;;;5052226;28;20648;-64
2023/07/09 14:46:56;;;;;;;6.30;5.90;;;;;;;;;;5051905;28;20591;-64
2023/07/09 14:49:25;;;;;;;6.07;5.47;;;;;;;;;;5052701;28;21213;-64
2023/07/09 14:51:53;;;;;;;6.30;5.60;;;;;;;;;;5052396;28;20611;-64
2023/07/09 14:54:22;;;;;;;7.63;6.10;;;;;;;;;;5052060;28;20617;-63